sensor_id;sensor_type;location;lat;lon;timestamp;P1;durP1;ratioP1;P2;durP2;ratioP2
33206;SDS011;19565;46.602;11.534;2023-04-24T00:00:52;1.58;;;1.20;;
33206;SDS011;19565;46.602;11.534;2023-04-24T00:03:22;8.48;;;2.42;;
33206;SDS011;19565;46.602;11.534;2023-04-24T00:05:51;2.13;;;1.90;;
33206;SDS011;19565;46.602;11.534;2023-04-24T00:08:19;1.30;;;1.30;;
33206;SDS011;19565;46.602;11.534;2023-04-24T00:10:47;1.33;;;1.23;;
33206;SDS011;19565;46.602;11.534;2023-04-24T00:13:15;1.83;;;1.70;;
33206;SDS011;19565;46.602;11.534;2023-04-24T00:15:44;1.55;;;1.25;;
33206;SDS011;19565;46.602;11.534;2023-04-24T00:18:12;2.35;;;1.77;;
33206;SDS011;19565;46.602;11.534;2023-04-24T00:20:40;1.97;;;1.83;;
33206;SDS011;19565;46.602;11.534;2023-04-24T00:23:09;1.40;;;1.30;;
33206;SDS011;19565;46.602;11.534;2023-04-24T00:25:38;1.73;;;1.60;;
33206;SDS011;19565;46.602;11.534;2023-04-24T00:28:06;0.93;;;0.93;;
33206;SDS011;19565;46.602;11.534;2023-04-24T00:30:34;1.57;;;1.30;;
33206;SDS011;19565;46.602;11.534;2023-04-24T00:33:03;1.90;;;1.13;;
33206;SDS011;19565;46.602;11.534;2023-04-24T00:35:31;1.77;;;1.37;;
33206;SDS011;19565;46.602;11.534;2023-04-24T00:37:59;1.63;;;1.10;;
33206;SDS011;19565;46.602;11.534;2023-04-24T00:40:28;0.80;;;0.80;;
33206;SDS011;19565;46.602;11.534;2023-04-24T00:42:56;1.90;;;1.50;;
33206;SDS011;19565;46.602;11.534;2023-04-24T00:45:24;1.10;;;0.93;;
33206;SDS011;19565;46.602;11.534;2023-04-24T00:47:52;1.47;;;0.80;;
33206;SDS011;19565;46.602;11.534;2023-04-24T00:50:23;1.00;;;0.83;;
33206;SDS011;19565;46.602;11.534;2023-04-24T00:52:52;1.47;;;1.10;;
33206;SDS011;19565;46.602;11.534;2023-04-24T00:55:20;0.97;;;0.97;;
33206;SDS011;19565;46.602;11.534;2023-04-24T00:57:48;0.90;;;0.90;;
33206;SDS011;19565;46.602;11.534;2023-04-24T01:00:17;1.03;;;0.93;;
33206;SDS011;19565;46.602;11.534;2023-04-24T01:02:46;0.60;;;0.57;;
33206;SDS011;19565;46.602;11.534;2023-04-24T01:05:16;0.77;;;0.57;;
33206;SDS011;19565;46.602;11.534;2023-04-24T01:07:47;0.50;;;0.50;;
33206;SDS011;19565;46.602;11.534;2023-04-24T01:10:15;0.47;;;0.47;;
33206;SDS011;19565;46.602;11.534;2023-04-24T01:12:46;0.40;;;0.40;;
33206;SDS011;19565;46.602;11.534;2023-04-24T01:15:14;1.57;;;1.33;;
33206;SDS011;19565;46.602;11.534;2023-04-24T01:17:42;0.50;;;0.50;;
33206;SDS011;19565;46.602;11.534;2023-04-24T01:20:11;1.07;;;0.97;;
33206;SDS011;19565;46.602;11.534;2023-04-24T01:22:42;0.67;;;0.50;;
33206;SDS011;19565;46.602;11.534;2023-04-24T01:25:10;1.47;;;0.60;;
33206;SDS011;19565;46.602;11.534;2023-04-24T01:27:38;0.47;;;0.47;;
33206;SDS011;19565;46.602;11.534;2023-04-24T01:30:06;0.40;;;0.40;;
33206;SDS011;19565;46.602;11.534;2023-04-24T01:32:35;0.63;;;0.63;;
33206;SDS011;19565;46.602;11.534;2023-04-24T01:35:05;0.40;;;0.40;;
33206;SDS011;19565;46.602;11.534;2023-04-24T01:37:34;0.47;;;0.47;;
33206;SDS011;19565;46.602;11.534;2023-04-24T01:40:05;1.13;;;1.07;;
33206;SDS011;19565;46.602;11.534;2023-04-24T01:42:34;1.73;;;1.63;;
33206;SDS011;19565;46.602;11.534;2023-04-24T01:45:03;0.37;;;0.37;;
33206;SDS011;19565;46.602;11.534;2023-04-24T01:47:32;0.60;;;0.60;;
33206;SDS011;19565;46.602;11.534;2023-04-24T01:50:00;0.30;;;0.30;;
33206;SDS011;19565;46.602;11.534;2023-04-24T01:52:28;0.30;;;0.30;;
33206;SDS011;19565;46.602;11.534;2023-04-24T01:54:59;0.40;;;0.40;;
33206;SDS011;19565;46.602;11.534;2023-04-24T01:57:29;0.40;;;0.40;;
33206;SDS011;19565;46.602;11.534;2023-04-24T01:59:57;0.30;;;0.30;;
33206;SDS011;19565;46.602;11.534;2023-04-24T02:02:25;0.30;;;0.30;;
33206;SDS011;19565;46.602;11.534;2023-04-24T02:04:55;0.37;;;0.37;;
33206;SDS011;19565;46.602;11.534;2023-04-24T02:07:23;0.30;;;0.30;;
33206;SDS011;19565;46.602;11.534;2023-04-24T02:09:51;0.57;;;0.57;;
33206;SDS011;19565;46.602;11.534;2023-04-24T02:12:19;0.40;;;0.40;;
33206;SDS011;19565;46.602;11.534;2023-04-24T02:14:48;0.20;;;0.20;;
33206;SDS011;19565;46.602;11.534;2023-04-24T02:17:16;0.80;;;0.73;;
33206;SDS011;19565;46.602;11.534;2023-04-24T02:19:45;1.03;;;1.03;;
33206;SDS011;19565;46.602;11.534;2023-04-24T02:22:13;1.13;;;1.13;;
33206;SDS011;19565;46.602;11.534;2023-04-24T02:24:41;0.20;;;0.20;;
33206;SDS011;19565;46.602;11.534;2023-04-24T02:27:09;0.33;;;0.33;;
33206;SDS011;19565;46.602;11.534;2023-04-24T02:29:37;0.40;;;0.40;;
33206;SDS011;19565;46.602;11.534;2023-04-24T02:32:07;1.33;;;1.20;;
33206;SDS011;19565;46.602;11.534;2023-04-24T02:34:38;0.30;;;0.30;;
33206;SDS011;19565;46.602;11.534;2023-04-24T02:37:06;0.40;;;0.40;;
33206;SDS011;19565;46.602;11.534;2023-04-24T02:39:34;0.30;;;0.30;;
33206;SDS011;19565;46.602;11.534;2023-04-24T02:42:02;0.73;;;0.73;;
33206;SDS011;19565;46.602;11.534;2023-04-24T02:44:30;4.30;;;1.17;;
33206;SDS011;19565;46.602;11.534;2023-04-24T02:46:58;0.90;;;0.83;;
33206;SDS011;19565;46.602;11.534;2023-04-24T02:49:28;0.47;;;0.47;;
33206;SDS011;19565;46.602;11.534;2023-04-24T02:51:56;0.50;;;0.50;;
33206;SDS011;19565;46.602;11.534;2023-04-24T02:54:24;1.40;;;1.37;;
33206;SDS011;19565;46.602;11.534;2023-04-24T02:56:52;0.20;;;0.20;;
33206;SDS011;19565;46.602;11.534;2023-04-24T02:59:20;0.40;;;0.40;;
33206;SDS011;19565;46.602;11.534;2023-04-24T03:01:48;0.57;;;0.57;;
33206;SDS011;19565;46.602;11.534;2023-04-24T03:04:16;0.50;;;0.50;;
33206;SDS011;19565;46.602;11.534;2023-04-24T03:06:48;1.07;;;0.93;;
33206;SDS011;19565;46.602;11.534;2023-04-24T03:09:17;0.40;;;0.40;;
33206;SDS011;19565;46.602;11.534;2023-04-24T03:11:46;0.30;;;0.30;;
33206;SDS011;19565;46.602;11.534;2023-04-24T03:14:14;0.70;;;0.70;;
33206;SDS011;19565;46.602;11.534;2023-04-24T03:16:42;0.60;;;0.60;;
33206;SDS011;19565;46.602;11.534;2023-04-24T03:19:10;1.43;;;1.33;;
33206;SDS011;19565;46.602;11.534;2023-04-24T03:21:39;0.53;;;0.53;;
33206;SDS011;19565;46.602;11.534;2023-04-24T03:24:08;0.67;;;0.60;;
33206;SDS011;19565;46.602;11.534;2023-04-24T03:26:36;0.40;;;0.40;;
33206;SDS011;19565;46.602;11.534;2023-04-24T03:29:04;0.40;;;0.40;;
33206;SDS011;19565;46.602;11.534;2023-04-24T03:31:32;0.73;;;0.73;;
33206;SDS011;19565;46.602;11.534;2023-04-24T03:34:00;1.80;;;1.70;;
33206;SDS011;19565;46.602;11.534;2023-04-24T03:36:28;0.50;;;0.50;;
33206;SDS011;19565;46.602;11.534;2023-04-24T03:38:57;0.33;;;0.33;;
33206;SDS011;19565;46.602;11.534;2023-04-24T03:41:26;0.30;;;0.30;;
33206;SDS011;19565;46.602;11.534;2023-04-24T03:43:55;0.30;;;0.30;;
33206;SDS011;19565;46.602;11.534;2023-04-24T03:46:23;0.50;;;0.50;;
33206;SDS011;19565;46.602;11.534;2023-04-24T03:48:51;0.77;;;0.77;;
33206;SDS011;19565;46.602;11.534;2023-04-24T03:51:19;0.63;;;0.63;;
33206;SDS011;19565;46.602;11.534;2023-04-24T03:53:47;0.23;;;0.23;;
33206;SDS011;19565;46.602;11.534;2023-04-24T03:56:16;0.23;;;0.23;;
33206;SDS011;19565;46.602;11.534;2023-04-24T03:58:45;0.30;;;0.30;;
33206;SDS011;19565;46.602;11.534;2023-04-24T04:01:13;0.23;;;0.23;;
33206;SDS011;19565;46.602;11.534;2023-04-24T04:03:42;0.40;;;0.40;;
33206;SDS011;19565;46.602;11.534;2023-04-24T04:06:10;0.40;;;0.40;;
33206;SDS011;19565;46.602;11.534;2023-04-24T04:08:39;0.83;;;0.53;;
33206;SDS011;19565;46.602;11.534;2023-04-24T04:11:07;0.20;;;0.20;;
33206;SDS011;19565;46.602;11.534;2023-04-24T04:13:35;0.40;;;0.40;;
33206;SDS011;19565;46.602;11.534;2023-04-24T04:16:05;0.20;;;0.20;;
33206;SDS011;19565;46.602;11.534;2023-04-24T04:18:33;0.23;;;0.23;;
33206;SDS011;19565;46.602;11.534;2023-04-24T04:21:01;0.33;;;0.30;;
33206;SDS011;19565;46.602;11.534;2023-04-24T04:23:29;0.57;;;0.57;;
33206;SDS011;19565;46.602;11.534;2023-04-24T04:25:58;0.73;;;0.73;;
33206;SDS011;19565;46.602;11.534;2023-04-24T04:28:26;0.80;;;0.80;;
33206;SDS011;19565;46.602;11.534;2023-04-24T04:30:54;0.80;;;0.80;;
33206;SDS011;19565;46.602;11.534;2023-04-24T04:33:25;0.97;;;0.97;;
33206;SDS011;19565;46.602;11.534;2023-04-24T04:35:53;0.70;;;0.70;;
33206;SDS011;19565;46.602;11.534;2023-04-24T04:38:23;0.80;;;0.80;;
33206;SDS011;19565;46.602;11.534;2023-04-24T04:40:52;0.73;;;0.73;;
33206;SDS011;19565;46.602;11.534;2023-04-24T04:43:23;0.83;;;0.83;;
33206;SDS011;19565;46.602;11.534;2023-04-24T04:45:51;1.07;;;1.07;;
33206;SDS011;19565;46.602;11.534;2023-04-24T04:48:20;1.07;;;1.07;;
33206;SDS011;19565;46.602;11.534;2023-04-24T04:50:50;1.37;;;1.37;;
33206;SDS011;19565;46.602;11.534;2023-04-24T04:53:18;1.03;;;1.03;;
33206;SDS011;19565;46.602;11.534;2023-04-24T04:55:46;1.00;;;1.00;;
33206;SDS011;19565;46.602;11.534;2023-04-24T04:58:14;7.20;;;1.30;;
33206;SDS011;19565;46.602;11.534;2023-04-24T05:00:42;53.20;;;51.10;;
33206;SDS011;19565;46.602;11.534;2023-04-24T05:03:10;1.00;;;0.93;;
33206;SDS011;19565;46.602;11.534;2023-04-24T05:05:44;0.30;;;0.30;;
33206;SDS011;19565;46.602;11.534;2023-04-24T05:08:13;0.30;;;0.30;;
33206;SDS011;19565;46.602;11.534;2023-04-24T05:10:52;0.30;;;0.30;;
33206;SDS011;19565;46.602;11.534;2023-04-24T05:13:20;0.40;;;0.40;;
33206;SDS011;19565;46.602;11.534;2023-04-24T05:16:01;0.93;;;0.53;;
33206;SDS011;19565;46.602;11.534;2023-04-24T05:18:29;0.30;;;0.30;;
33206;SDS011;19565;46.602;11.534;2023-04-24T05:20:57;0.40;;;0.40;;
33206;SDS011;19565;46.602;11.534;2023-04-24T05:23:26;0.40;;;0.40;;
33206;SDS011;19565;46.602;11.534;2023-04-24T05:25:54;0.60;;;0.60;;
33206;SDS011;19565;46.602;11.534;2023-04-24T05:28:22;0.30;;;0.30;;
33206;SDS011;19565;46.602;11.534;2023-04-24T05:30:54;0.50;;;0.50;;
33206;SDS011;19565;46.602;11.534;2023-04-24T05:33:23;1.70;;;0.73;;
33206;SDS011;19565;46.602;11.534;2023-04-24T05:35:51;1.50;;;0.95;;
33206;SDS011;19565;46.602;11.534;2023-04-24T05:38:19;0.70;;;0.70;;
33206;SDS011;19565;46.602;11.534;2023-04-24T05:40:48;0.40;;;0.40;;
33206;SDS011;19565;46.602;11.534;2023-04-24T05:43:16;0.40;;;0.40;;
33206;SDS011;19565;46.602;11.534;2023-04-24T05:45:44;0.30;;;0.30;;
33206;SDS011;19565;46.602;11.534;2023-04-24T05:48:12;0.30;;;0.30;;
33206;SDS011;19565;46.602;11.534;2023-04-24T05:50:40;1.80;;;1.70;;
33206;SDS011;19565;46.602;11.534;2023-04-24T05:53:09;0.80;;;0.80;;
33206;SDS011;19565;46.602;11.534;2023-04-24T05:55:37;0.30;;;0.30;;
33206;SDS011;19565;46.602;11.534;2023-04-24T05:58:07;0.50;;;0.40;;
33206;SDS011;19565;46.602;11.534;2023-04-24T06:00:35;0.30;;;0.30;;
33206;SDS011;19565;46.602;11.534;2023-04-24T06:03:03;1.50;;;0.87;;
33206;SDS011;19565;46.602;11.534;2023-04-24T06:05:31;0.30;;;0.30;;
33206;SDS011;19565;46.602;11.534;2023-04-24T06:07:59;0.30;;;0.30;;
33206;SDS011;19565;46.602;11.534;2023-04-24T06:10:27;2.80;;;1.43;;
33206;SDS011;19565;46.602;11.534;2023-04-24T06:12:55;0.87;;;0.87;;
33206;SDS011;19565;46.602;11.534;2023-04-24T06:15:29;0.60;;;0.60;;
33206;SDS011;19565;46.602;11.534;2023-04-24T06:17:57;0.57;;;0.57;;
33206;SDS011;19565;46.602;11.534;2023-04-24T06:20:26;0.50;;;0.50;;
33206;SDS011;19565;46.602;11.534;2023-04-24T06:22:54;0.40;;;0.40;;
33206;SDS011;19565;46.602;11.534;2023-04-24T06:25:24;0.70;;;0.70;;
33206;SDS011;19565;46.602;11.534;2023-04-24T06:27:52;0.82;;;0.82;;
33206;SDS011;19565;46.602;11.534;2023-04-24T06:30:21;2.42;;;1.33;;
33206;SDS011;19565;46.602;11.534;2023-04-24T06:32:50;1.77;;;0.98;;
33206;SDS011;19565;46.602;11.534;2023-04-24T06:35:18;0.30;;;0.30;;
33206;SDS011;19565;46.602;11.534;2023-04-24T06:37:46;0.60;;;0.60;;
33206;SDS011;19565;46.602;11.534;2023-04-24T06:40:14;0.40;;;0.40;;
33206;SDS011;19565;46.602;11.534;2023-04-24T06:42:44;0.30;;;0.30;;
33206;SDS011;19565;46.602;11.534;2023-04-24T06:45:12;0.70;;;0.70;;
33206;SDS011;19565;46.602;11.534;2023-04-24T06:47:40;0.80;;;0.80;;
33206;SDS011;19565;46.602;11.534;2023-04-24T06:50:10;0.30;;;0.30;;
33206;SDS011;19565;46.602;11.534;2023-04-24T06:52:40;0.90;;;0.57;;
33206;SDS011;19565;46.602;11.534;2023-04-24T06:55:08;0.30;;;0.30;;
33206;SDS011;19565;46.602;11.534;2023-04-24T06:57:37;0.30;;;0.30;;
33206;SDS011;19565;46.602;11.534;2023-04-24T07:00:05;0.93;;;0.93;;
33206;SDS011;19565;46.602;11.534;2023-04-24T07:02:35;0.50;;;0.50;;
33206;SDS011;19565;46.602;11.534;2023-04-24T07:05:04;0.30;;;0.30;;
33206;SDS011;19565;46.602;11.534;2023-04-24T07:07:34;0.50;;;0.50;;
33206;SDS011;19565;46.602;11.534;2023-04-24T07:10:04;2.57;;;2.00;;
33206;SDS011;19565;46.602;11.534;2023-04-24T07:12:34;0.80;;;0.80;;
33206;SDS011;19565;46.602;11.534;2023-04-24T07:15:04;0.40;;;0.40;;
33206;SDS011;19565;46.602;11.534;2023-04-24T07:17:34;0.40;;;0.40;;
33206;SDS011;19565;46.602;11.534;2023-04-24T07:20:02;0.40;;;0.40;;
33206;SDS011;19565;46.602;11.534;2023-04-24T07:22:31;0.50;;;0.50;;
33206;SDS011;19565;46.602;11.534;2023-04-24T07:25:01;1.30;;;1.30;;
33206;SDS011;19565;46.602;11.534;2023-04-24T07:27:29;1.40;;;1.40;;
33206;SDS011;19565;46.602;11.534;2023-04-24T07:30:00;1.60;;;1.60;;
33206;SDS011;19565;46.602;11.534;2023-04-24T07:32:28;1.52;;;1.52;;
33206;SDS011;19565;46.602;11.534;2023-04-24T07:34:56;0.50;;;0.50;;
33206;SDS011;19565;46.602;11.534;2023-04-24T07:37:24;1.48;;;1.48;;
33206;SDS011;19565;46.602;11.534;2023-04-24T07:39:52;1.60;;;1.50;;
33206;SDS011;19565;46.602;11.534;2023-04-24T07:42:22;2.00;;;1.77;;
33206;SDS011;19565;46.602;11.534;2023-04-24T07:44:50;2.08;;;1.98;;
33206;SDS011;19565;46.602;11.534;2023-04-24T07:47:18;4.35;;;1.98;;
33206;SDS011;19565;46.602;11.534;2023-04-24T07:49:46;1.80;;;1.70;;
33206;SDS011;19565;46.602;11.534;2023-04-24T07:52:14;1.80;;;1.70;;
33206;SDS011;19565;46.602;11.534;2023-04-24T07:54:42;2.10;;;2.00;;
33206;SDS011;19565;46.602;11.534;2023-04-24T07:57:10;2.45;;;2.35;;
33206;SDS011;19565;46.602;11.534;2023-04-24T07:59:39;2.30;;;2.20;;
33206;SDS011;19565;46.602;11.534;2023-04-24T08:02:08;2.40;;;2.30;;
33206;SDS011;19565;46.602;11.534;2023-04-24T08:04:37;2.88;;;2.78;;
33206;SDS011;19565;46.602;11.534;2023-04-24T08:07:05;2.40;;;2.30;;
33206;SDS011;19565;46.602;11.534;2023-04-24T08:09:34;3.95;;;2.53;;
33206;SDS011;19565;46.602;11.534;2023-04-24T08:12:02;2.25;;;2.15;;
33206;SDS011;19565;46.602;11.534;2023-04-24T08:14:30;2.20;;;2.10;;
33206;SDS011;19565;46.602;11.534;2023-04-24T08:16:59;2.30;;;2.20;;
33206;SDS011;19565;46.602;11.534;2023-04-24T08:19:28;3.60;;;3.40;;
33206;SDS011;19565;46.602;11.534;2023-04-24T08:21:56;2.83;;;2.72;;
33206;SDS011;19565;46.602;11.534;2023-04-24T08:24:24;2.90;;;2.80;;
33206;SDS011;19565;46.602;11.534;2023-04-24T08:26:52;3.20;;;3.03;;
33206;SDS011;19565;46.602;11.534;2023-04-24T08:29:22;3.13;;;2.97;;
33206;SDS011;19565;46.602;11.534;2023-04-24T08:31:51;3.20;;;3.00;;
33206;SDS011;19565;46.602;11.534;2023-04-24T08:34:22;0.93;;;0.93;;
33206;SDS011;19565;46.602;11.534;2023-04-24T08:36:50;2.00;;;1.90;;
33206;SDS011;19565;46.602;11.534;2023-04-24T08:39:18;0.75;;;0.75;;
33206;SDS011;19565;46.602;11.534;2023-04-24T08:41:46;0.50;;;0.50;;
33206;SDS011;19565;46.602;11.534;2023-04-24T08:44:16;0.50;;;0.50;;
33206;SDS011;19565;46.602;11.534;2023-04-24T08:46:44;0.40;;;0.40;;
33206;SDS011;19565;46.602;11.534;2023-04-24T08:49:15;0.60;;;0.60;;
33206;SDS011;19565;46.602;11.534;2023-04-24T08:51:45;0.57;;;0.57;;
33206;SDS011;19565;46.602;11.534;2023-04-24T08:54:14;0.40;;;0.40;;
33206;SDS011;19565;46.602;11.534;2023-04-24T08:56:42;0.80;;;0.77;;
33206;SDS011;19565;46.602;11.534;2023-04-24T08:59:12;0.63;;;0.63;;
33206;SDS011;19565;46.602;11.534;2023-04-24T09:01:40;2.20;;;2.10;;
33206;SDS011;19565;46.602;11.534;2023-04-24T09:04:09;1.33;;;1.33;;
33206;SDS011;19565;46.602;11.534;2023-04-24T09:06:38;1.52;;;1.42;;
33206;SDS011;19565;46.602;11.534;2023-04-24T09:09:09;1.30;;;1.30;;
33206;SDS011;19565;46.602;11.534;2023-04-24T09:11:38;1.60;;;1.50;;
33206;SDS011;19565;46.602;11.534;2023-04-24T09:14:07;1.70;;;1.70;;
33206;SDS011;19565;46.602;11.534;2023-04-24T09:16:37;2.00;;;1.90;;
33206;SDS011;19565;46.602;11.534;2023-04-24T09:19:05;1.60;;;1.60;;
33206;SDS011;19565;46.602;11.534;2023-04-24T09:21:33;1.85;;;1.75;;
33206;SDS011;19565;46.602;11.534;2023-04-24T09:24:03;2.05;;;1.95;;
33206;SDS011;19565;46.602;11.534;2023-04-24T09:26:35;1.80;;;1.70;;
33206;SDS011;19565;46.602;11.534;2023-04-24T09:29:04;1.80;;;1.70;;
33206;SDS011;19565;46.602;11.534;2023-04-24T09:31:32;2.00;;;1.90;;
33206;SDS011;19565;46.602;11.534;2023-04-24T09:34:01;2.10;;;2.00;;
33206;SDS011;19565;46.602;11.534;2023-04-24T09:36:34;2.00;;;1.90;;
33206;SDS011;19565;46.602;11.534;2023-04-24T09:39:04;2.50;;;2.40;;
33206;SDS011;19565;46.602;11.534;2023-04-24T09:41:44;2.80;;;2.70;;
33206;SDS011;19565;46.602;11.534;2023-04-24T09:44:13;3.00;;;2.80;;
33206;SDS011;19565;46.602;11.534;2023-04-24T09:46:43;2.50;;;2.40;;
33206;SDS011;19565;46.602;11.534;2023-04-24T09:49:13;2.70;;;2.60;;
33206;SDS011;19565;46.602;11.534;2023-04-24T09:51:42;2.50;;;2.40;;
33206;SDS011;19565;46.602;11.534;2023-04-24T09:54:13;2.50;;;2.40;;
33206;SDS011;19565;46.602;11.534;2023-04-24T09:56:45;2.67;;;2.57;;
33206;SDS011;19565;46.602;11.534;2023-04-24T09:59:13;2.80;;;2.70;;
33206;SDS011;19565;46.602;11.534;2023-04-24T10:01:42;1.17;;;1.17;;
33206;SDS011;19565;46.602;11.534;2023-04-24T10:04:15;1.93;;;1.73;;
33206;SDS011;19565;46.602;11.534;2023-04-24T10:06:44;0.80;;;0.80;;
33206;SDS011;19565;46.602;11.534;2023-04-24T10:09:15;1.40;;;1.30;;
33206;SDS011;19565;46.602;11.534;2023-04-24T10:11:44;1.30;;;1.20;;
33206;SDS011;19565;46.602;11.534;2023-04-24T10:14:15;1.70;;;1.60;;
33206;SDS011;19565;46.602;11.534;2023-04-24T10:16:44;1.40;;;1.40;;
33206;SDS011;19565;46.602;11.534;2023-04-24T10:19:13;1.20;;;1.20;;
33206;SDS011;19565;46.602;11.534;2023-04-24T10:21:42;1.30;;;1.30;;
33206;SDS011;19565;46.602;11.534;2023-04-24T10:24:13;1.17;;;1.17;;
33206;SDS011;19565;46.602;11.534;2023-04-24T10:26:42;1.73;;;1.63;;
33206;SDS011;19565;46.602;11.534;2023-04-24T10:29:12;1.87;;;1.77;;
33206;SDS011;19565;46.602;11.534;2023-04-24T10:31:41;1.93;;;1.83;;
33206;SDS011;19565;46.602;11.534;2023-04-24T10:34:12;2.00;;;1.90;;
33206;SDS011;19565;46.602;11.534;2023-04-24T10:36:43;1.77;;;1.70;;
33206;SDS011;19565;46.602;11.534;2023-04-24T10:39:15;2.20;;;2.10;;
33206;SDS011;19565;46.602;11.534;2023-04-24T10:41:52;6.23;;;5.63;;
33206;SDS011;19565;46.602;11.534;2023-04-24T10:44:25;6.63;;;6.23;;
33206;SDS011;19565;46.602;11.534;2023-04-24T10:47:03;4.37;;;4.17;;
33206;SDS011;19565;46.602;11.534;2023-04-24T10:49:31;4.97;;;4.67;;
33206;SDS011;19565;46.602;11.534;2023-04-24T10:52:00;6.23;;;5.83;;
33206;SDS011;19565;46.602;11.534;2023-04-24T10:54:34;8.33;;;7.83;;
33206;SDS011;19565;46.602;11.534;2023-04-24T11:00:13;30.00;;;28.80;;
33206;SDS011;19565;46.602;11.534;2023-04-24T11:02:42;15.33;;;14.63;;
33206;SDS011;19565;46.602;11.534;2023-04-24T11:05:17;19.90;;;19.00;;
33206;SDS011;19565;46.602;11.534;2023-04-24T11:10:56;20.13;;;19.23;;
33206;SDS011;19565;46.602;11.534;2023-04-24T11:13:26;21.50;;;20.50;;
33206;SDS011;19565;46.602;11.534;2023-04-24T11:16:16;21.13;;;20.13;;
33206;SDS011;19565;46.602;11.534;2023-04-24T11:18:50;22.47;;;21.47;;
33206;SDS011;19565;46.602;11.534;2023-04-24T11:21:21;26.87;;;25.67;;
33206;SDS011;19565;46.602;11.534;2023-04-24T11:23:50;29.50;;;28.20;;
33206;SDS011;19565;46.602;11.534;2023-04-24T11:26:18;36.77;;;35.20;;
33206;SDS011;19565;46.602;11.534;2023-04-24T11:28:50;21.93;;;20.93;;
33206;SDS011;19565;46.602;11.534;2023-04-24T11:31:35;22.70;;;21.60;;
33206;SDS011;19565;46.602;11.534;2023-04-24T11:34:08;22.07;;;21.07;;
33206;SDS011;19565;46.602;11.534;2023-04-24T11:36:36;19.97;;;19.07;;
33206;SDS011;19565;46.602;11.534;2023-04-24T11:39:05;21.97;;;20.97;;
33206;SDS011;19565;46.602;11.534;2023-04-24T11:41:33;24.63;;;23.53;;
33206;SDS011;19565;46.602;11.534;2023-04-24T11:44:02;25.53;;;24.43;;
33206;SDS011;19565;46.602;11.534;2023-04-24T11:46:32;21.20;;;20.20;;
33206;SDS011;19565;46.602;11.534;2023-04-24T11:49:02;22.57;;;21.57;;
33206;SDS011;19565;46.602;11.534;2023-04-24T11:51:30;30.43;;;29.07;;
33206;SDS011;19565;46.602;11.534;2023-04-24T11:54:13;31.10;;;29.70;;
33206;SDS011;19565;46.602;11.534;2023-04-24T11:56:44;21.07;;;20.07;;
33206;SDS011;19565;46.602;11.534;2023-04-24T11:59:13;21.20;;;20.20;;
33206;SDS011;19565;46.602;11.534;2023-04-24T12:01:44;18.47;;;17.57;;
33206;SDS011;19565;46.602;11.534;2023-04-24T12:04:15;22.87;;;21.77;;
33206;SDS011;19565;46.602;11.534;2023-04-24T12:07:00;38.40;;;36.80;;
33206;SDS011;19565;46.602;11.534;2023-04-24T12:09:29;36.87;;;35.27;;
33206;SDS011;19565;46.602;11.534;2023-04-24T12:12:08;30.70;;;29.40;;
33206;SDS011;19565;46.602;11.534;2023-04-24T12:14:42;28.55;;;27.25;;
33206;SDS011;19565;46.602;11.534;2023-04-24T12:17:11;19.00;;;18.00;;
33206;SDS011;19565;46.602;11.534;2023-04-24T12:19:45;21.70;;;20.70;;
33206;SDS011;19565;46.602;11.534;2023-04-24T12:22:14;19.67;;;18.67;;
33206;SDS011;19565;46.602;11.534;2023-04-24T12:24:58;18.90;;;18.00;;
33206;SDS011;19565;46.602;11.534;2023-04-24T12:27:29;19.38;;;18.48;;
33206;SDS011;19565;46.602;11.534;2023-04-24T12:29:59;19.27;;;18.38;;
33206;SDS011;19565;46.602;11.534;2023-04-24T12:32:29;19.10;;;18.20;;
33206;SDS011;19565;46.602;11.534;2023-04-24T12:34:58;19.20;;;18.30;;
33206;SDS011;19565;46.602;11.534;2023-04-24T12:37:26;19.60;;;18.60;;
33206;SDS011;19565;46.602;11.534;2023-04-24T12:40:03;22.92;;;21.73;;
33206;SDS011;19565;46.602;11.534;2023-04-24T12:42:34;20.05;;;19.05;;
33206;SDS011;19565;46.602;11.534;2023-04-24T12:45:03;19.90;;;18.90;;
33206;SDS011;19565;46.602;11.534;2023-04-24T12:47:34;19.30;;;18.40;;
33206;SDS011;19565;46.602;11.534;2023-04-24T12:50:05;19.63;;;18.67;;
33206;SDS011;19565;46.602;11.534;2023-04-24T12:52:33;20.25;;;19.25;;
33206;SDS011;19565;46.602;11.534;2023-04-24T12:55:02;19.65;;;18.75;;
33206;SDS011;19565;46.602;11.534;2023-04-24T12:57:31;20.43;;;19.43;;
33206;SDS011;19565;46.602;11.534;2023-04-24T12:59:59;20.10;;;19.10;;
33206;SDS011;19565;46.602;11.534;2023-04-24T13:02:27;20.10;;;19.10;;
33206;SDS011;19565;46.602;11.534;2023-04-24T13:04:56;19.95;;;18.95;;
33206;SDS011;19565;46.602;11.534;2023-04-24T13:07:27;19.48;;;18.50;;
33206;SDS011;19565;46.602;11.534;2023-04-24T13:09:55;18.77;;;17.88;;
33206;SDS011;19565;46.602;11.534;2023-04-24T13:12:24;18.83;;;17.92;;
33206;SDS011;19565;46.602;11.534;2023-04-24T13:14:52;18.90;;;18.00;;
33206;SDS011;19565;46.602;11.534;2023-04-24T13:17:21;18.77;;;17.88;;
33206;SDS011;19565;46.602;11.534;2023-04-24T13:19:49;19.35;;;18.45;;
33206;SDS011;19565;46.602;11.534;2023-04-24T13:22:18;18.58;;;17.67;;
33206;SDS011;19565;46.602;11.534;2023-04-24T13:24:49;20.23;;;19.23;;
33206;SDS011;19565;46.602;11.534;2023-04-24T13:27:17;20.98;;;19.98;;
33206;SDS011;19565;46.602;11.534;2023-04-24T13:29:45;19.10;;;18.20;;
33206;SDS011;19565;46.602;11.534;2023-04-24T13:32:13;19.30;;;18.40;;
33206;SDS011;19565;46.602;11.534;2023-04-24T13:34:41;21.33;;;20.33;;
33206;SDS011;19565;46.602;11.534;2023-04-24T13:37:10;33.30;;;31.90;;
33206;SDS011;19565;46.602;11.534;2023-04-24T13:39:38;23.58;;;22.48;;
33206;SDS011;19565;46.602;11.534;2023-04-24T13:42:08;19.17;;;18.27;;
33206;SDS011;19565;46.602;11.534;2023-04-24T13:44:37;19.67;;;18.77;;
33206;SDS011;19565;46.602;11.534;2023-04-24T13:47:05;20.30;;;19.30;;
33206;SDS011;19565;46.602;11.534;2023-04-24T13:49:33;20.38;;;19.38;;
33206;SDS011;19565;46.602;11.534;2023-04-24T13:52:01;20.60;;;19.60;;
33206;SDS011;19565;46.602;11.534;2023-04-24T13:54:29;20.58;;;19.58;;
33206;SDS011;19565;46.602;11.534;2023-04-24T13:56:57;19.73;;;18.83;;
33206;SDS011;19565;46.602;11.534;2023-04-24T13:59:28;19.60;;;18.70;;
33206;SDS011;19565;46.602;11.534;2023-04-24T14:01:56;18.55;;;17.65;;
33206;SDS011;19565;46.602;11.534;2023-04-24T14:04:24;34.97;;;33.53;;
33206;SDS011;19565;46.602;11.534;2023-04-24T14:06:52;25.45;;;24.35;;
33206;SDS011;19565;46.602;11.534;2023-04-24T14:09:20;35.00;;;33.50;;
33206;SDS011;19565;46.602;11.534;2023-04-24T14:11:48;20.30;;;19.30;;
33206;SDS011;19565;46.602;11.534;2023-04-24T14:14:16;21.15;;;20.15;;
33206;SDS011;19565;46.602;11.534;2023-04-24T14:16:46;19.13;;;18.23;;
33206;SDS011;19565;46.602;11.534;2023-04-24T14:19:13;21.10;;;20.00;;
33206;SDS011;19565;46.602;11.534;2023-04-24T14:21:41;19.08;;;18.17;;
33206;SDS011;19565;46.602;11.534;2023-04-24T14:24:09;24.80;;;23.45;;
33206;SDS011;19565;46.602;11.534;2023-04-24T14:26:37;18.60;;;17.70;;
33206;SDS011;19565;46.602;11.534;2023-04-24T14:29:05;22.83;;;21.83;;
33206;SDS011;19565;46.602;11.534;2023-04-24T14:31:40;25.70;;;24.50;;
33206;SDS011;19565;46.602;11.534;2023-04-24T14:34:09;24.80;;;23.70;;
33206;SDS011;19565;46.602;11.534;2023-04-24T14:36:37;24.92;;;23.83;;
33206;SDS011;19565;46.602;11.534;2023-04-24T14:39:05;24.40;;;23.20;;
33206;SDS011;19565;46.602;11.534;2023-04-24T14:41:33;24.48;;;23.38;;
33206;SDS011;19565;46.602;11.534;2023-04-24T14:44:03;22.70;;;21.65;;
33206;SDS011;19565;46.602;11.534;2023-04-24T14:46:31;25.38;;;24.23;;